Time;durP1;ratioP1;P1;durP2;ratioP2;P2;SDS_P1;SDS_P2;PMS_P1;PMS_P2;Temp;Humidity;BMP_temperature;BMP_pressure;BME280_temperature;BME280_humidity;BME280_pressure;Samples;Min_cycle;Max_cycle;Signal;HPM_P1;HPM_P2
2022/06/21 00:02:06;;;;;;;9.75;7.88;;;24.10;99.90;;;;;;5072928;28;20202;-76
2022/06/21 00:04:34;;;;;;;12.90;7.78;;;24.10;99.90;;;;;;5072254;28;20618;-71
2022/06/21 00:07:04;;;;;;;11.27;7.93;;;24.10;99.90;;;;;;5072850;28;20198;-73
2022/06/21 00:09:31;;;;;;;11.95;8.45;;;24.10;99.90;;;;;;5072142;28;20214;-73
2022/06/21 00:11:58;;;;;;;10.55;7.30;;;24.00;99.90;;;;;;5072826;28;20256;-73
2022/06/21 00:14:25;;;;;;;13.27;8.52;;;24.10;99.90;;;;;;5072254;28;20584;-76
2022/06/21 00:16:54;;;;;;;8.77;7.38;;;24.10;99.90;;;;;;5072301;28;20259;-73
2022/06/21 00:19:23;;;;;;;13.60;8.68;;;24.00;99.90;;;;;;5072080;28;20299;-73
2022/06/21 00:21:51;;;;;;;10.38;8.02;;;24.10;99.90;;;;;;5072181;28;20562;-81
2022/06/21 00:24:18;;;;;;;20.65;7.60;;;24.00;99.90;;;;;;5072544;28;20206;-75
2022/06/21 00:26:47;;;;;;;10.02;7.30;;;24.10;99.90;;;;;;5072227;28;20562;-72
2022/06/21 00:29:15;;;;;;;10.65;7.40;;;24.00;99.90;;;;;;5073239;28;20206;-74
2022/06/21 00:31:49;;;;;;;16.83;8.95;;;24.00;99.90;;;;;;5072867;28;20206;-85
2022/06/21 00:34:21;;;;;;;9.90;8.10;;;24.00;99.90;;;;;;5072390;28;20310;-74
2022/06/21 00:36:50;;;;;;;10.38;8.05;;;24.00;99.90;;;;;;5072322;28;20260;-83
2022/06/21 00:39:19;;;;;;;12.23;7.80;;;24.00;99.90;;;;;;5072032;28;20229;-73
2022/06/21 00:41:50;;;;;;;13.70;8.07;;;24.00;99.90;;;;;;5072093;28;20236;-73
2022/06/21 00:44:23;;;;;;;9.95;7.30;;;24.00;99.90;;;;;;5071636;28;20206;-72
2022/06/21 00:46:54;;;;;;;15.30;8.77;;;23.90;99.90;;;;;;5071246;28;20727;-74
2022/06/21 00:49:27;;;;;;;9.98;7.07;;;23.90;99.90;;;;;;5071309;28;20260;-73
2022/06/21 00:51:58;;;;;;;11.63;7.95;;;23.90;99.90;;;;;;5071827;28;20678;-75
2022/06/21 00:54:30;;;;;;;13.23;9.60;;;23.90;99.90;;;;;;5071437;28;20325;-76
2022/06/21 00:57:02;;;;;;;10.18;7.30;;;24.00;99.90;;;;;;5071834;28;20198;-76
2022/06/21 00:59:30;;;;;;;11.18;7.80;;;24.00;99.90;;;;;;5071155;28;20206;-75
2022/06/21 01:02:00;;;;;;;10.90;7.95;;;24.00;99.90;;;;;;5071668;28;20203;-73
2022/06/21 01:04:35;;;;;;;9.25;6.88;;;24.10;99.90;;;;;;5071319;28;20210;-74
2022/06/21 01:07:06;;;;;;;9.80;8.05;;;24.10;99.90;;;;;;5071707;28;20210;-73
2022/06/21 01:09:37;;;;;;;11.88;6.88;;;24.00;99.90;;;;;;5070971;28;20242;-72
2022/06/21 01:12:10;;;;;;;8.85;7.55;;;24.00;99.90;;;;;;5071448;28;20206;-70
2022/06/21 01:14:41;;;;;;;9.88;7.78;;;24.00;99.90;;;;;;5060397;28;20702;-71
2022/06/21 01:17:11;;;;;;;12.27;8.23;;;24.00;99.90;;;;;;5059698;28;20630;-73
2022/06/21 01:19:43;;;;;;;11.23;7.63;;;24.00;99.90;;;;;;5073243;28;20210;-75
2022/06/21 01:22:30;;;;;;;10.88;7.57;;;24.00;99.90;;;;;;5061564;28;20210;-71
2022/06/21 01:25:10;;;;;;;10.73;7.70;;;24.10;99.90;;;;;;5074617;28;20271;-75
2022/06/21 01:27:39;;;;;;;10.48;6.07;;;24.00;99.90;;;;;;5070863;28;20741;-74
2022/06/21 01:30:08;;;;;;;8.23;5.32;;;23.90;99.90;;;;;;5071575;28;20251;-73
2022/06/21 01:32:35;;;;;;;8.57;4.88;;;23.70;99.90;;;;;;5070620;28;20627;-72
2022/06/21 01:35:08;;;;;;;9.90;5.53;;;23.40;99.90;;;;;;5069588;28;20724;-72
2022/06/21 01:37:36;;;;;;;9.93;5.85;;;23.20;99.90;;;;;;5071405;28;20735;-72
2022/06/21 01:40:09;;;;;;;8.20;5.38;;;23.20;99.90;;;;;;5071989;28;20203;-71
2022/06/21 01:42:42;;;;;;;9.35;6.07;;;23.10;99.90;;;;;;5073192;28;20758;-71
2022/06/21 01:45:13;;;;;;;9.10;5.60;;;23.20;99.90;;;;;;5072157;28;20210;-72
2022/06/21 01:47:45;;;;;;;10.48;4.57;;;23.10;99.90;;;;;;5075268;28;20208;-72
2022/06/21 01:50:12;;;;;;;10.48;5.53;;;23.00;99.90;;;;;;5073863;28;20237;-72
2022/06/21 01:52:46;;;;;;;8.60;5.00;;;22.90;99.90;;;;;;5069425;28;20662;-72
2022/06/21 01:55:17;;;;;;;9.13;5.65;;;22.90;99.90;;;;;;5071154;28;20259;-71
2022/06/21 01:57:46;;;;;;;7.95;5.05;;;22.90;99.90;;;;;;5070775;28;20674;-71
2022/06/21 02:00:14;;;;;;;9.65;4.53;;;22.80;99.90;;;;;;5071089;28;20210;-72
2022/06/21 02:02:45;;;;;;;7.07;4.43;;;22.70;99.90;;;;;;5070722;28;20260;-71
2022/06/21 02:05:19;;;;;;;8.02;5.07;;;22.70;99.90;;;;;;5072317;28;20753;-71
2022/06/21 02:07:49;;;;;;;7.43;4.40;;;22.60;99.90;;;;;;5071890;28;20233;-71
2022/06/21 02:10:23;;;;;;;7.85;4.38;;;22.50;99.90;;;;;;5071975;28;20706;-71
2022/06/21 02:12:54;;;;;;;7.00;3.85;;;22.40;99.90;;;;;;5071075;28;20259;-71
2022/06/21 02:15:31;;;;;;;7.90;5.65;;;22.40;99.90;;;;;;5071877;28;20197;-71
2022/06/21 02:18:01;;;;;;;9.90;3.72;;;22.40;99.90;;;;;;5071723;28;20209;-71
2022/06/21 02:20:35;;;;;;;6.35;5.10;;;22.40;99.90;;;;;;5071640;28;20198;-72
2022/06/21 02:23:03;;;;;;;7.53;4.07;;;22.30;99.90;;;;;;5072063;28;20210;-72
2022/06/21 02:25:30;;;;;;;4.50;3.60;;;22.40;99.90;;;;;;5071783;28;20227;-71
2022/06/21 02:28:04;;;;;;;7.28;3.97;;;22.30;99.90;;;;;;5070541;28;20259;-71
2022/06/21 02:30:31;;;;;;;7.63;3.53;;;22.20;99.90;;;;;;5070697;28;20205;-71
2022/06/21 02:33:02;;;;;;;5.57;3.72;;;22.20;99.90;;;;;;5070128;28;20256;-71
2022/06/21 02:35:35;;;;;;;5.70;4.22;;;22.20;99.90;;;;;;5069999;28;20201;-71
2022/06/21 02:38:07;;;;;;;6.60;4.10;;;22.40;99.90;;;;;;5069109;28;20255;-72
2022/06/21 02:40:38;;;;;;;7.95;3.90;;;22.30;99.90;;;;;;5069781;28;20259;-71
2022/06/21 02:43:11;;;;;;;8.65;3.95;;;22.40;99.90;;;;;;5069982;28;20751;-72
2022/06/21 02:45:47;;;;;;;5.68;4.07;;;22.40;99.90;;;;;;5069842;28;20209;-72
2022/06/21 02:48:18;;;;;;;7.18;3.97;;;22.40;99.90;;;;;;5070465;28;20274;-72
2022/06/21 02:50:49;;;;;;;7.57;4.10;;;22.40;99.90;;;;;;5070455;28;20245;-72
2022/06/21 02:53:20;;;;;;;7.95;3.97;;;22.50;99.90;;;;;;5069975;28;20678;-73
2022/06/21 02:55:51;;;;;;;9.73;4.30;;;22.30;99.90;;;;;;5070126;28;20206;-72
2022/06/21 02:58:27;;;;;;;6.25;3.63;;;22.20;99.90;;;;;;5069385;28;20621;-72
2022/06/21 03:00:55;;;;;;;8.60;3.78;;;22.20;99.90;;;;;;5070206;28;20271;-73
2022/06/21 03:03:25;;;;;;;4.90;3.40;;;22.10;99.90;;;;;;5069582;28;20807;-72
2022/06/21 03:05:57;;;;;;;6.32;3.97;;;22.10;99.90;;;;;;5069949;28;20666;-73
2022/06/21 03:08:25;;;;;;;9.07;3.95;;;22.30;99.90;;;;;;5070311;28;20263;-74
2022/06/21 03:10:53;;;;;;;9.02;3.55;;;22.20;99.90;;;;;;5074120;28;20216;-73
2022/06/21 03:13:24;;;;;;;6.18;3.55;;;22.30;99.90;;;;;;5073141;28;20234;-74
2022/06/21 03:15:56;;;;;;;7.35;3.47;;;22.30;99.90;;;;;;5073830;28;20259;-74
2022/06/21 03:18:26;;;;;;;8.75;3.97;;;22.20;99.90;;;;;;5073287;28;20267;-72
2022/06/21 03:20:54;;;;;;;7.47;3.70;;;22.20;99.90;;;;;;5073640;28;20263;-74
2022/06/21 03:23:22;;;;;;;6.03;4.30;;;22.00;99.90;;;;;;5073332;28;20245;-72
2022/06/21 03:25:52;;;;;;;7.82;5.38;;;22.00;99.90;;;;;;5073519;28;20255;-72
2022/06/21 03:28:25;;;;;;;11.65;4.82;;;22.00;99.90;;;;;;5073217;28;20210;-72
2022/06/21 03:30:59;;;;;;;7.07;3.75;;;21.90;99.90;;;;;;5059612;28;20210;-73
2022/06/21 03:33:26;;;;;;;7.78;3.97;;;22.00;99.90;;;;;;5072938;28;20295;-72
2022/06/21 03:35:53;;;;;;;4.60;3.83;;;22.20;99.90;;;;;;5073204;28;20206;-73
2022/06/21 03:38:21;;;;;;;10.95;3.60;;;22.40;99.90;;;;;;5073157;28;20210;-72
2022/06/21 03:43:41;;;;;;;7.40;3.95;;;22.30;99.90;;;;;;5072929;28;20225;-74
2022/06/21 03:46:12;;;;;;;7.82;4.10;;;22.10;99.90;;;;;;5073201;28;20237;-73
2022/06/21 03:48:44;;;;;;;5.15;3.70;;;22.00;99.90;;;;;;5072728;28;20672;-72
2022/06/21 03:51:13;;;;;;;8.55;3.58;;;21.90;99.90;;;;;;5073359;28;20238;-72
2022/06/21 03:53:46;;;;;;;5.15;3.33;;;21.90;99.90;;;;;;5072848;28;20234;-72
2022/06/21 03:56:19;;;;;;;6.38;3.92;;;21.80;99.90;;;;;;5073006;28;20267;-71
2022/06/21 03:58:55;;;;;;;4.40;2.78;;;21.70;99.90;;;;;;5072996;28;20731;-72
2022/06/21 04:01:27;;;;;;;6.15;3.92;;;21.70;99.90;;;;;;5072228;28;20665;-72
2022/06/21 04:04:00;;;;;;;9.77;4.10;;;21.70;99.90;;;;;;5072870;28;20201;-72
2022/06/21 04:06:46;;;;;;;6.93;3.72;;;21.70;99.90;;;;;;5072197;28;20252;-71
2022/06/21 04:09:22;;;;;;;7.82;3.25;;;21.80;99.90;;;;;;5073098;28;20297;-73
2022/06/21 04:11:56;;;;;;;7.68;3.50;;;21.90;99.90;;;;;;5072757;28;20255;-73
2022/06/21 04:14:30;;;;;;;5.28;3.40;;;21.90;99.90;;;;;;5072210;28;20226;-72
2022/06/21 04:17:03;;;;;;;6.15;4.30;;;21.80;99.90;;;;;;5072636;28;20210;-72
2022/06/21 04:19:36;;;;;;;8.80;4.53;;;21.90;99.90;;;;;;5071246;28;20202;-73
2022/06/21 04:22:08;;;;;;;7.85;4.78;;;21.80;99.90;;;;;;5072183;28;20240;-72
2022/06/21 04:24:40;;;;;;;9.65;4.28;;;21.70;99.90;;;;;;5072147;28;20209;-72
2022/06/21 04:27:12;;;;;;;7.82;3.80;;;21.70;99.90;;;;;;5072429;28;20202;-73
2022/06/21 04:29:48;;;;;;;8.18;3.53;;;21.70;99.90;;;;;;5072060;28;20274;-72
2022/06/21 04:32:21;;;;;;;9.35;3.40;;;21.80;99.90;;;;;;5072590;28;20259;-72
2022/06/21 04:34:52;;;;;;;10.07;4.32;;;21.90;99.90;;;;;;5072499;28;20264;-72
2022/06/21 04:37:25;;;;;;;9.75;4.00;;;22.00;99.90;;;;;;5071647;28;20198;-72
2022/06/21 04:39:56;;;;;;;12.70;4.13;;;21.90;99.90;;;;;;5071983;28;20597;-72
2022/06/21 04:42:29;;;;;;;7.68;3.92;;;21.90;99.90;;;;;;5071465;28;20279;-72
2022/06/21 04:45:02;;;;;;;7.25;3.83;;;21.80;99.90;;;;;;5072132;28;20263;-72
2022/06/21 04:47:33;;;;;;;8.07;3.80;;;21.70;99.90;;;;;;5071549;28;20285;-74
2022/06/21 04:50:05;;;;;;;10.35;3.67;;;21.90;99.90;;;;;;5071858;28;20658;-74
2022/06/21 04:52:37;;;;;;;7.72;4.15;;;21.80;99.90;;;;;;5071189;28;20202;-75
2022/06/21 04:55:05;;;;;;;9.82;4.00;;;21.70;99.90;;;;;;5071502;28;20230;-73
2022/06/21 04:57:33;;;;;;;7.82;4.50;;;21.70;99.90;;;;;;5071175;28;20210;-73
2022/06/21 05:00:05;;;;;;;9.52;4.68;;;21.80;99.90;;;;;;5071420;28;20289;-74
2022/06/21 05:02:37;;;;;;;9.02;3.70;;;21.70;99.90;;;;;;5071348;28;20206;-73
2022/06/21 05:05:07;;;;;;;6.68;3.97;;;21.70;99.90;;;;;;5071266;28;20248;-73
2022/06/21 05:07:39;;;;;;;14.20;4.65;;;21.70;99.90;;;;;;5071332;28;20237;-72
2022/06/21 05:10:07;;;;;;;8.70;3.72;;;21.80;99.90;;;;;;5071562;28;20210;-73
2022/06/21 05:12:37;;;;;;;8.30;4.07;;;21.70;99.90;;;;;;5071122;28;20255;-72
2022/06/21 05:15:13;;;;;;;8.60;3.95;;;21.80;99.90;;;;;;5071228;28;20226;-73
2022/06/21 05:17:42;;;;;;;8.25;4.40;;;21.70;99.90;;;;;;5071012;28;20263;-73
2022/06/21 05:20:18;;;;;;;12.55;4.18;;;21.60;99.90;;;;;;5071442;28;20267;-74
2022/06/21 05:22:49;;;;;;;15.40;4.65;;;21.60;99.90;;;;;;5071361;28;20206;-71
2022/06/21 05:25:22;;;;;;;8.10;3.70;;;21.60;99.90;;;;;;5071268;28;20271;-71
2022/06/21 05:27:56;;;;;;;9.82;3.85;;;21.60;99.90;;;;;;5069777;28;20417;-71
2022/06/21 05:30:32;;;;;;;9.35;3.28;;;21.60;99.90;;;;;;5056723;28;20265;-70
2022/06/21 05:33:04;;;;;;;10.70;4.43;;;21.60;99.90;;;;;;5070714;28;20214;-84
2022/06/21 05:35:35;;;;;;;9.88;3.70;;;21.60;99.90;;;;;;5071018;28;20248;-76
2022/06/21 05:38:05;;;;;;;15.23;4.57;;;21.60;99.90;;;;;;5070810;28;20233;-76
2022/06/21 05:40:39;;;;;;;9.73;4.30;;;22.00;99.90;;;;;;5070707;28;20205;-76
2022/06/21 05:43:13;;;;;;;5.47;4.07;;;21.80;99.90;;;;;;5071027;28;20663;-76
2022/06/21 05:45:48;;;;;;;7.50;3.78;;;21.80;99.90;;;;;;5070788;28;20267;-76
2022/06/21 05:48:22;;;;;;;9.02;5.15;;;22.00;99.90;;;;;;5071368;28;20271;-76
2022/06/21 05:50:49;;;;;;;9.10;4.35;;;22.20;99.90;;;;;;5070472;28;20210;-78
2022/06/21 05:53:26;;;;;;;8.00;3.58;;;22.00;99.90;;;;;;5070852;28;20210;-76
2022/06/21 05:55:53;;;;;;;11.32;4.10;;;22.00;99.90;;;;;;5070909;28;20234;-77
2022/06/21 05:58:25;;;;;;;9.25;4.03;;;22.10;99.90;;;;;;5070603;28;20633;-76
2022/06/21 06:01:01;;;;;;;8.30;3.75;;;22.20;99.90;;;;;;5070657;28;20656;-77
2022/06/21 06:03:33;;;;;;;9.38;4.00;;;22.20;99.90;;;;;;5070504;28;20267;-76
2022/06/21 06:06:04;;;;;;;9.43;4.05;;;22.30;99.90;;;;;;5070708;28;20222;-77
2022/06/21 06:08:36;;;;;;;7.70;4.35;;;22.10;99.90;;;;;;5070470;28;20214;-77
2022/06/21 06:11:08;;;;;;;7.75;4.57;;;21.90;99.90;;;;;;5067444;28;20205;-76
2022/06/21 06:13:39;;;;;;;10.98;3.97;;;22.00;99.90;;;;;;5070852;28;20259;-80
2022/06/21 06:16:28;;;;;;;8.95;4.60;;;22.20;99.90;;;;;;5062252;28;20226;-80
2022/06/21 06:19:01;;;;;;;14.48;4.82;;;22.20;99.90;;;;;;5070190;28;20198;-80
2022/06/21 06:21:32;;;;;;;8.50;4.97;;;22.20;99.90;;;;;;5069629;28;20231;-76
2022/06/21 06:24:05;;;;;;;13.93;5.30;;;22.10;99.90;;;;;;5077060;28;20674;-79
2022/06/21 06:26:37;;;;;;;8.95;5.13;;;22.00;99.90;;;;;;5082025;28;20209;-78
2022/06/21 06:29:13;;;;;;;12.15;4.40;;;22.00;99.90;;;;;;5078653;28;20731;-77
2022/06/21 06:31:47;;;;;;;9.27;4.70;;;22.20;99.90;;;;;;5068224;28;20288;-75
2022/06/21 06:34:17;;;;;;;29.42;5.43;;;22.40;99.90;;;;;;5080483;28;20331;-81
2022/06/21 06:36:48;;;;;;;8.52;4.93;;;22.40;99.90;;;;;;5086621;28;20274;-77
2022/06/21 06:39:21;;;;;;;9.95;4.20;;;22.30;99.90;;;;;;5080002;28;20206;-73
2022/06/21 06:41:58;;;;;;;9.15;4.93;;;22.40;99.90;;;;;;5079541;28;20217;-73
2022/06/21 06:44:28;;;;;;;9.95;4.50;;;22.50;99.90;;;;;;5072119;28;20201;-74
2022/06/21 06:46:59;;;;;;;16.10;5.50;;;22.60;99.90;;;;;;5084974;28;20259;-73
2022/06/21 06:49:30;;;;;;;9.77;5.45;;;22.80;99.90;;;;;;5090884;28;20757;-73
2022/06/21 06:52:03;;;;;;;13.02;5.25;;;22.90;99.90;;;;;;5085327;28;20209;-74
2022/06/21 06:54:37;;;;;;;11.55;4.85;;;22.80;99.90;;;;;;5079730;28;20247;-74
2022/06/21 06:57:19;;;;;;;14.23;6.10;;;22.60;99.90;;;;;;5074476;28;20206;-75
2022/06/21 06:59:46;;;;;;;11.43;5.32;;;22.40;99.90;;;;;;5062153;28;20195;-74
2022/06/21 07:02:22;;;;;;;11.70;5.65;;;22.30;99.90;;;;;;5071457;28;20245;-72
2022/06/21 07:04:57;;;;;;;5.70;5.13;;;22.50;99.90;;;;;;5071717;28;20732;-71
2022/06/21 07:07:30;;;;;;;13.68;5.95;;;22.50;99.90;;;;;;5068081;28;20336;-70
2022/06/21 07:10:02;;;;;;;9.23;5.43;;;22.40;99.90;;;;;;5070424;28;20268;-74
2022/06/21 07:12:31;;;;;;;11.68;4.93;;;22.40;99.90;;;;;;5073711;28;20293;-71
2022/06/21 07:15:00;;;;;;;10.40;6.07;;;22.50;99.90;;;;;;5078540;28;20229;-69
2022/06/21 07:17:33;;;;;;;13.25;6.40;;;22.40;99.90;;;;;;5068359;28;20627;-79
2022/06/21 07:20:01;;;;;;;10.27;5.63;;;22.40;99.90;;;;;;5075744;28;20734;-80
2022/06/21 07:22:33;;;;;;;9.80;5.13;;;22.20;99.90;;;;;;5076728;28;20214;-80
2022/06/21 07:25:06;;;;;;;9.80;4.60;;;22.30;99.90;;;;;;5076739;28;20244;-81
2022/06/21 07:27:36;;;;;;;17.98;5.82;;;22.60;99.90;;;;;;5066837;28;20233;-79
2022/06/21 07:30:07;;;;;;;13.70;6.00;;;22.70;99.90;;;;;;5077804;28;20197;-78
2022/06/21 07:32:42;;;;;;;12.32;5.35;;;22.50;99.90;;;;;;5069699;28;20224;-78
2022/06/21 07:35:13;;;;;;;9.77;6.72;;;22.50;99.90;;;;;;5084027;28;20229;-77
2022/06/21 07:37:46;;;;;;;12.95;6.50;;;22.60;99.90;;;;;;5070232;28;20210;-77
2022/06/21 07:40:18;;;;;;;11.80;6.07;;;22.50;99.90;;;;;;5072675;28;20206;-77
2022/06/21 07:42:49;;;;;;;12.85;5.05;;;22.60;99.90;;;;;;5073438;28;20210;-78
2022/06/21 07:45:21;;;;;;;14.32;6.03;;;22.70;99.90;;;;;;5073093;28;20206;-77
2022/06/21 07:47:56;;;;;;;12.00;6.65;;;22.60;99.90;;;;;;5072659;28;20263;-78
2022/06/21 07:50:30;;;;;;;14.48;7.43;;;22.50;99.90;;;;;;5072563;28;20565;-78
2022/06/21 07:53:03;;;;;;;12.32;5.47;;;22.40;99.90;;;;;;5073289;28;20231;-79
2022/06/21 07:55:34;;;;;;;12.05;7.07;;;22.40;99.90;;;;;;5072196;28;20287;-75
2022/06/21 07:58:05;;;;;;;12.15;6.57;;;22.60;99.90;;;;;;5072850;28;20259;-76
2022/06/21 08:09:01;;;;;;;9.00;4.85;;;22.70;99.90;;;;;;5066186;28;20194;-84
2022/06/21 08:11:34;;;;;;;8.70;6.03;;;22.90;99.90;;;;;;5072829;28;20554;-79
2022/06/21 08:14:02;;;;;;;13.82;6.63;;;23.10;99.90;;;;;;5072898;28;20202;-85
2022/06/21 08:16:35;;;;;;;13.05;6.50;;;23.00;99.90;;;;;;5070318;28;20583;-78
2022/06/21 08:19:12;;;;;;;7.10;5.57;;;23.10;99.90;;;;;;5058624;28;20205;-79
2022/06/21 08:21:46;;;;;;;10.65;5.70;;;23.00;99.90;;;;;;5072492;28;20214;-79
2022/06/21 08:24:22;;;;;;;13.95;7.60;;;23.00;99.90;;;;;;5073006;28;20237;-80
2022/06/21 08:26:55;;;;;;;11.93;6.28;;;23.10;99.90;;;;;;5071898;28;20758;-80
2022/06/21 08:29:27;;;;;;;12.60;5.43;;;23.20;99.90;;;;;;5072242;28;20296;-79
2022/06/21 08:31:59;;;;;;;12.93;5.50;;;23.00;99.90;;;;;;5072471;28;20210;-79
2022/06/21 08:34:35;;;;;;;10.90;5.75;;;22.90;99.90;;;;;;5072370;28;20210;-79
2022/06/21 08:37:10;;;;;;;11.68;5.57;;;22.80;99.90;;;;;;5072464;28;20300;-79
2022/06/21 08:39:42;;;;;;;13.02;6.32;;;22.70;99.90;;;;;;5072054;28;20218;-79
2022/06/21 08:42:36;;;;;;;9.05;6.15;;;22.70;99.90;;;;;;5071999;28;20280;-79
2022/06/21 08:45:42;;;;;;;8.98;6.38;;;22.70;99.90;;;;;;5061785;28;20638;-80
2022/06/21 08:48:44;;;;;;;11.80;7.32;;;22.80;99.90;;;;;;5072220;28;20635;-79
2022/06/21 08:51:51;;;;;;;16.15;8.00;;;22.90;99.90;;;;;;5072245;28;20209;-79
2022/06/21 08:54:28;;;;;;;13.10;6.00;;;22.80;99.90;;;;;;5063947;28;20217;-78
2022/06/21 08:57:04;;;;;;;13.25;5.68;;;22.70;99.90;;;;;;5072075;28;20229;-78
2022/06/21 08:59:42;;;;;;;8.88;6.68;;;22.80;99.90;;;;;;5071420;28;20674;-79
2022/06/21 09:02:19;;;;;;;16.88;7.15;;;22.80;99.90;;;;;;5071952;28;20630;-79
2022/06/21 09:04:59;;;;;;;12.20;6.68;;;22.90;99.90;;;;;;5069213;28;20202;-80
2022/06/21 09:07:54;;;;;;;15.90;7.05;;;23.10;99.90;;;;;;5060068;28;20573;-79
2022/06/21 09:10:44;;;;;;;9.27;5.40;;;23.30;99.90;;;;;;5053226;28;20328;-83
2022/06/21 09:13:33;;;;;;;13.88;7.35;;;23.20;99.90;;;;;;5071928;28;20211;-81
2022/06/21 09:16:10;;;;;;;18.85;6.60;;;23.10;99.90;;;;;;5069065;28;20299;-84
2022/06/21 09:18:57;;;;;;;18.27;6.78;;;23.00;99.90;;;;;;5071458;28;20206;-82
2022/06/21 09:21:30;;;;;;;14.05;5.57;;;23.20;99.90;;;;;;5073778;28;20209;-89
2022/06/21 09:24:03;;;;;;;8.60;6.10;;;23.20;99.90;;;;;;5079011;28;20674;-80
2022/06/21 09:26:37;;;;;;;9.90;6.18;;;23.00;99.90;;;;;;5077878;28;20202;-81
2022/06/21 09:29:13;;;;;;;16.08;7.18;;;23.10;99.90;;;;;;5070826;28;20201;-80
2022/06/21 09:31:50;;;;;;;12.45;5.88;;;23.30;99.90;;;;;;5070997;28;20288;-81
2022/06/21 09:34:33;;;;;;;8.75;5.93;;;23.50;99.90;;;;;;5070001;28;20619;-80
2022/06/21 09:37:10;;;;;;;12.43;6.90;;;23.80;99.90;;;;;;5080459;28;20225;-78
2022/06/21 09:39:47;;;;;;;16.58;7.15;;;23.80;99.90;;;;;;5074402;28;20212;-81
2022/06/21 09:42:23;;;;;;;9.13;6.03;;;23.80;99.90;;;;;;5083825;28;20673;-83
2022/06/21 09:45:00;;;;;;;15.10;7.00;;;23.80;99.90;;;;;;5081192;28;20662;-80
2022/06/21 09:47:34;;;;;;;11.68;6.90;;;23.70;99.90;;;;;;5081153;28;20205;-80
2022/06/21 09:50:12;;;;;;;8.48;5.78;;;23.70;99.90;;;;;;5067690;28;20261;-77
2022/06/21 09:52:48;;;;;;;12.40;6.18;;;23.70;99.90;;;;;;5085221;28;20806;-78
2022/06/21 09:55:25;;;;;;;11.80;5.65;;;23.70;99.90;;;;;;5088877;28;20225;-78
2022/06/21 09:57:58;;;;;;;18.40;6.70;;;23.80;99.90;;;;;;5087027;28;20254;-78
2022/06/21 10:00:33;;;;;;;11.68;6.97;;;23.90;99.90;;;;;;5081555;28;20639;-78
2022/06/21 10:03:14;;;;;;;9.75;6.32;;;24.00;99.90;;;;;;5071483;28;20206;-82
2022/06/21 10:05:50;;;;;;;13.13;6.57;;;24.20;99.90;;;;;;5070823;28;20297;-81
2022/06/21 10:08:35;;;;;;;14.65;6.80;;;24.20;99.90;;;;;;5073191;28;20737;-78
2022/06/21 10:11:14;;;;;;;9.32;6.78;;;24.20;99.90;;;;;;5066201;28;20206;-84
2022/06/21 10:14:17;;;;;;;11.35;7.07;;;24.20;99.90;;;;;;5069461;28;20627;-83
2022/06/21 10:17:08;;;;;;;13.73;6.70;;;24.40;99.90;;;;;;5062776;28;20634;-83
2022/06/21 10:19:47;;;;;;;14.18;6.93;;;24.40;99.90;;;;;;5060324;28;20221;-83
2022/06/21 10:22:30;;;;;;;7.53;6.82;;;24.50;99.90;;;;;;5070656;28;20249;-83
2022/06/21 10:25:17;;;;;;;11.98;7.43;;;24.60;99.90;;;;;;5071204;28;20263;-82
2022/06/21 10:28:29;;;;;;;12.10;6.50;;;24.60;99.90;;;;;;5070077;28;20264;-81
2022/06/21 10:31:10;;;;;;;13.85;6.95;;;24.60;99.90;;;;;;5034863;28;20566;-82
2022/06/21 10:34:02;;;;;;;10.90;6.57;;;24.90;99.90;;;;;;5070554;28;20216;-83
2022/06/21 10:36:49;;;;;;;13.00;6.50;;;24.80;99.90;;;;;;5060624;28;20226;-84
2022/06/21 10:39:48;;;;;;;13.38;5.35;;;25.50;99.90;;;;;;5075573;28;20259;-80
2022/06/21 10:45:27;;;;;;;12.10;7.78;;;25.30;99.90;;;;;;5071108;28;20590;-83
2022/06/21 10:48:23;;;;;;;10.35;6.35;;;25.20;99.90;;;;;;5070873;28;20256;-84
2022/06/21 10:50:57;;;;;;;15.25;8.07;;;25.10;99.90;;;;;;5062888;28;20198;-82
2022/06/21 10:53:49;;;;;;;6.80;5.15;;;24.90;99.90;;;;;;5070635;28;20220;-82
2022/06/21 11:01:16;;;;;;;7.80;6.75;;;25.00;99.90;;;;;;5071063;28;20208;-86
2022/06/21 11:02:34;;;;;;;10.55;6.45;;;25.20;99.90;;;;;;5070750;28;20291;-79
2022/06/21 11:05:06;;;;;;;9.93;5.95;;;25.00;99.90;;;;;;5071058;28;20220;-84
2022/06/21 11:07:41;;;;;;;18.13;7.30;;;25.00;99.90;;;;;;5065227;28;20284;-75
2022/06/21 11:10:13;;;;;;;11.65;6.82;;;25.10;99.90;;;;;;5079767;28;20206;-75
2022/06/21 11:12:56;;;;;;;9.85;5.78;;;25.50;99.90;;;;;;5068208;28;20247;-76
2022/06/21 11:15:33;;;;;;;11.95;5.78;;;25.50;99.90;;;;;;5083448;28;20206;-74
2022/06/21 11:18:08;;;;;;;8.35;5.00;;;25.30;99.90;;;;;;5087584;28;20202;-76
2022/06/21 11:20:45;;;;;;;15.07;5.85;;;25.10;99.90;;;;;;5080710;28;20684;-76
2022/06/21 11:23:21;;;;;;;15.98;6.22;;;25.40;99.90;;;;;;5070336;28;20263;-76
2022/06/21 11:25:57;;;;;;;10.50;5.03;;;25.90;99.90;;;;;;5069497;28;20681;-76
2022/06/21 11:28:37;;;;;;;10.27;5.90;;;26.10;99.90;;;;;;5069443;28;20214;-77
2022/06/21 11:31:12;;;;;;;7.97;6.45;;;26.40;99.90;;;;;;5073115;28;20794;-76
2022/06/21 11:33:49;;;;;;;9.18;6.93;;;26.60;99.90;;;;;;5073170;28;20212;-76
2022/06/21 11:36:24;;;;;;;10.45;6.00;;;26.70;99.90;;;;;;5073194;28;20233;-76
2022/06/21 11:39:02;;;;;;;11.07;7.28;;;26.40;99.90;;;;;;5072928;28;20261;-76
2022/06/21 11:44:42;;;;;;;11.93;7.35;;;26.30;99.90;;;;;;5072775;28;20581;-77
2022/06/21 11:47:12;;;;;;;9.18;6.13;;;26.30;99.90;;;;;;5072915;28;20210;-75
2022/06/21 11:49:48;;;;;;;7.00;6.30;;;26.50;99.90;;;;;;5072627;28;20205;-76
2022/06/21 11:52:49;;;;;;;15.68;7.35;;;26.50;99.90;;;;;;5073427;28;20688;-75
2022/06/21 11:55:28;;;;;;;16.27;7.25;;;26.40;99.90;;;;;;5063729;28;20247;-76
2022/06/21 11:58:02;;;;;;;6.90;5.38;;;26.60;99.90;;;;;;5071494;28;20214;-76
2022/06/21 12:00:36;;;;;;;8.95;6.68;;;26.80;99.90;;;;;;5064829;28;20678;-76
2022/06/21 12:03:04;;;;;;;11.50;7.03;;;27.20;99.90;;;;;;5072955;28;20212;-76
2022/06/21 12:05:39;;;;;;;9.60;5.78;;;27.30;99.90;;;;;;5072698;28;20203;-77
2022/06/21 12:08:14;;;;;;;9.18;6.43;;;27.00;99.90;;;;;;5075323;28;20201;-76
2022/06/21 12:10:50;;;;;;;11.40;7.30;;;27.30;99.90;;;;;;5072744;28;20255;-76
2022/06/21 12:13:28;;;;;;;10.45;7.28;;;27.40;99.90;;;;;;5072159;28;20245;-76
2022/06/21 12:16:07;;;;;;;14.18;6.95;;;27.70;99.90;;;;;;5072632;28;20290;-76
2022/06/21 12:18:36;;;;;;;7.43;6.38;;;28.40;99.90;;;;;;5068649;28;20283;-76
2022/06/21 12:21:09;;;;;;;9.15;6.82;;;28.90;99.90;;;;;;5072871;28;20584;-75
2022/06/21 12:23:41;;;;;;;10.25;7.00;;;29.00;99.90;;;;;;5071882;28;20206;-75
2022/06/21 12:26:12;;;;;;;10.27;7.18;;;28.00;99.90;;;;;;5072395;28;20210;-76
2022/06/21 12:28:40;;;;;;;9.38;7.43;;;27.90;99.90;;;;;;5071945;28;20292;-76
2022/06/21 12:31:16;;;;;;;11.43;9.05;;;27.70;99.90;;;;;;5072443;28;20581;-75
2022/06/21 12:33:47;;;;;;;10.38;6.75;;;28.30;99.90;;;;;;5072384;28;20641;-76
2022/06/21 12:36:30;;;;;;;11.32;6.72;;;28.90;99.90;;;;;;5072311;28;20226;-76
2022/06/21 12:39:00;;;;;;;18.35;8.15;;;28.50;99.90;;;;;;5068620;28;20202;-76
2022/06/21 12:41:41;;;;;;;10.88;7.65;;;28.90;99.90;;;;;;5070607;28;20218;-76
2022/06/21 12:44:24;;;;;;;10.18;7.20;;;29.00;99.90;;;;;;5069605;28;20206;-76
2022/06/21 12:46:58;;;;;;;17.02;7.78;;;29.00;99.90;;;;;;5071970;28;20647;-76
2022/06/21 12:49:46;;;;;;;20.02;8.25;;;29.10;99.90;;;;;;5063955;28;20207;-76
2022/06/21 12:52:24;;;;;;;10.90;7.35;;;29.40;99.90;;;;;;5076009;28;20849;-75
2022/06/21 12:55:05;;;;;;;15.20;9.43;;;29.20;99.90;;;;;;5064948;28;20207;-76
2022/06/21 12:57:47;;;;;;;17.40;9.13;;;29.40;99.90;;;;;;5066926;28;20724;-76
2022/06/21 13:00:26;;;;;;;11.65;8.60;;;29.30;99.90;;;;;;5071760;28;20259;-76
2022/06/21 13:03:24;;;;;;;10.70;7.00;;;29.20;99.90;;;;;;5071985;28;20210;-75
2022/06/21 13:06:06;;;;;;;9.30;7.10;;;28.90;99.90;;;;;;5063689;28;20255;-76
2022/06/21 13:09:10;;;;;;;9.18;7.60;;;29.20;99.90;;;;;;5071077;28;20256;-76
2022/06/21 13:11:56;;;;;;;9.13;7.30;;;29.20;99.90;;;;;;5071250;28;20619;-76
2022/06/21 13:14:57;;;;;;;11.20;7.35;;;29.00;99.90;;;;;;5071303;28;20256;-76
2022/06/21 13:17:53;;;;;;;13.35;7.53;;;29.50;99.90;;;;;;5071447;28;20295;-77
2022/06/21 13:20:27;;;;;;;9.77;7.32;;;29.30;99.90;;;;;;5070894;28;20206;-75
2022/06/21 13:23:01;;;;;;;17.65;7.85;;;29.30;99.90;;;;;;5071381;28;20206;-76
2022/06/21 13:25:43;;;;;;;11.93;7.60;;;28.80;99.90;;;;;;5070718;28;20206;-76
2022/06/21 13:28:33;;;;;;;14.02;8.63;;;28.90;99.90;;;;;;5071562;28;20624;-76
2022/06/21 13:31:06;;;;;;;17.60;8.48;;;28.80;99.90;;;;;;5058479;28;20202;-76
2022/06/21 13:33:58;;;;;;;9.23;8.13;;;29.10;99.90;;;;;;5070737;28;20288;-75
2022/06/21 13:36:40;;;;;;;9.40;7.15;;;29.60;99.90;;;;;;5070840;28;20295;-76
2022/06/21 13:39:26;;;;;;;14.18;7.90;;;29.50;99.90;;;;;;5071226;28;20293;-77
2022/06/21 13:44:59;;;;;;;11.13;7.38;;;28.90;99.90;;;;;;5044889;28;20237;-77
2022/06/21 13:47:32;;;;;;;12.68;7.60;;;29.00;99.90;;;;;;5070743;28;20210;-76